RTL weather

Spirit Lake Municipal Airport
Spirit Lake, Iowa, United States

Public forecast

Using degrees Fahrenheit for public forecast. Weather courtesy of forecast.io.

METAR (pilot weather report)

Closest report is Spencer Municipal Airport, 13.6 nm (25.2 km) SSW. Retrieved 2019/08/19 20:53 UTC (1 hour ago):

KSPW 192053Z AUTO 15009KT 10SM FEW029 28/19 A2999 RMK AO2 SLP149 T02780194 58010

TAF (pilot weather forecast)

Closest forecast is Fort Dodge Regional Airport, 65.2 nm (120.7 km) SE. Retrieved 2019/08/19 18:22 UTC (4 hours ago):

TAF KFOD 191720Z 1918/2018 13006KT P6SM FEW025 FM200700 15005KT P6SM VCTS BKN025CB WS020/20020KT FM201100 14008KT P6SM OVC120 FM201600 19008KT P6SM SCT035